Upstream stations:
Downstream station:
SHEF ID: BRIO2 Canadian River at Bridgeport, OK
STATION TYPE:
Regulating: Stage = 15.00, Flow = 8545
STAGE RIV-FLOW
ft cfs
Ccp-Rev Ccp-Rev
(US/Central)
05/29 00:00 12.60 2190
05/29 01:00 12.59 2176
05/29 02:00 12.59 2176
05/29 03:00 12.57 2146
05/29 04:00 12.56 2132
05/29 05:00 12.54 2103
05/29 06:00 12.59 2176
05/29 07:00 13.09 2999
05/29 08:00 13.13 3073
05/29 09:00 13.00 2838
05/29 10:00 12.96 2768
05/29 11:00 12.91 2682
05/29 12:00 12.90 2665
05/29 13:00 12.89 2648
05/29 14:00 12.86 2598
05/29 15:00 12.84 2565
05/29 16:00 12.83 2548
05/29 17:00 12.83 2548
05/29 18:00 12.83 2548
05/29 19:00 12.81 2516
05/29 20:00 12.70 2341
05/29 21:00 12.63 2235
05/29 22:00 10.14 222
05/29 23:00 ---- ----